sensor_id;sensor_type;location;lat;lon;timestamp;pressure;altitude;pressure_sealevel;temperature;humidity
51687;BME280;37774;52.192;4.584;2023-02-08T00:00:24;103803.78;;;-5.89;100.00
51687;BME280;37774;52.192;4.584;2023-02-08T00:02:51;104228.69;;;-3.45;100.00
51687;BME280;37774;52.192;4.584;2023-02-08T00:05:18;104259.97;;;-3.21;100.00
51687;BME280;37774;52.192;4.584;2023-02-08T00:07:45;104249.72;;;-3.14;100.00
51687;BME280;37774;52.192;4.584;2023-02-08T00:10:13;104191.06;;;-3.56;100.00
51687;BME280;37774;52.192;4.584;2023-02-08T00:12:40;104245.88;;;-3.26;100.00
51687;BME280;37774;52.192;4.584;2023-02-08T00:15:07;103769.16;;;-6.13;100.00
51687;BME280;37774;52.192;4.584;2023-02-08T00:17:34;104199.31;;;-3.34;100.00
51687;BME280;37774;52.192;4.584;2023-02-08T00:20:01;104226.44;;;-3.26;100.00
51687;BME280;37774;52.192;4.584;2023-02-08T00:22:28;104212.78;;;-3.26;100.00
51687;BME280;37774;52.192;4.584;2023-02-08T00:24:54;103898.47;;;-5.24;100.00
51687;BME280;37774;52.192;4.584;2023-02-08T00:27:22;103701.56;;;-6.54;100.00
51687;BME280;37774;52.192;4.584;2023-02-08T00:29:49;104104.84;;;-3.96;100.00
51687;BME280;37774;52.192;4.584;2023-02-08T00:32:16;104240.97;;;-3.25;100.00
51687;BME280;37774;52.192;4.584;2023-02-08T00:34:43;104227.91;;;-3.28;100.00
51687;BME280;37774;52.192;4.584;2023-02-08T00:37:10;104173.44;;;-3.55;100.00
51687;BME280;37774;52.192;4.584;2023-02-08T00:39:36;104161.59;;;-3.79;100.00
51687;BME280;37774;52.192;4.584;2023-02-08T00:42:03;104141.97;;;-4.05;100.00
51687;BME280;37774;52.192;4.584;2023-02-08T00:44:32;104249.66;;;-3.63;100.00
51687;BME280;37774;52.192;4.584;2023-02-08T00:46:58;104226.75;;;-3.47;100.00
51687;BME280;37774;52.192;4.584;2023-02-08T00:49:25;104159.41;;;-3.92;100.00
51687;BME280;37774;52.192;4.584;2023-02-08T00:51:52;104233.09;;;-3.60;100.00
51687;BME280;37774;52.192;4.584;2023-02-08T00:54:20;103782.00;;;-6.35;100.00
51687;BME280;37774;52.192;4.584;2023-02-08T00:56:47;103988.78;;;-5.02;100.00
51687;BME280;37774;52.192;4.584;2023-02-08T00:59:14;104236.41;;;-3.52;100.00
51687;BME280;37774;52.192;4.584;2023-02-08T01:01:42;104258.41;;;-3.53;100.00
51687;BME280;37774;52.192;4.584;2023-02-08T01:04:08;104247.84;;;-3.48;100.00
51687;BME280;37774;52.192;4.584;2023-02-08T01:06:35;103877.78;;;-5.52;100.00
51687;BME280;37774;52.192;4.584;2023-02-08T01:09:02;103939.00;;;-5.57;100.00
51687;BME280;37774;52.192;4.584;2023-02-08T01:11:29;104255.47;;;-3.48;100.00
51687;BME280;37774;52.192;4.584;2023-02-08T01:13:56;104166.78;;;-3.86;100.00
51687;BME280;37774;52.192;4.584;2023-02-08T01:16:25;103889.31;;;-5.47;100.00
51687;BME280;37774;52.192;4.584;2023-02-08T01:18:55;104249.97;;;-3.60;100.00
51687;BME280;37774;52.192;4.584;2023-02-08T01:21:24;104257.19;;;-3.56;100.00
51687;BME280;37774;52.192;4.584;2023-02-08T01:23:51;104096.59;;;-4.34;100.00
51687;BME280;37774;52.192;4.584;2023-02-08T01:26:19;103950.47;;;-5.44;100.00
51687;BME280;37774;52.192;4.584;2023-02-08T01:28:47;104166.78;;;-4.02;100.00
51687;BME280;37774;52.192;4.584;2023-02-08T01:31:15;103992.78;;;-5.04;100.00
51687;BME280;37774;52.192;4.584;2023-02-08T01:33:43;104174.66;;;-3.92;100.00
51687;BME280;37774;52.192;4.584;2023-02-08T01:36:12;104143.69;;;-4.29;100.00
51687;BME280;37774;52.192;4.584;2023-02-08T01:38:39;103970.03;;;-5.11;100.00
51687;BME280;37774;52.192;4.584;2023-02-08T01:41:08;104197.91;;;-3.64;100.00
51687;BME280;37774;52.192;4.584;2023-02-08T01:44:02;104227.19;;;-3.68;100.00
51687;BME280;37774;52.192;4.584;2023-02-08T01:46:30;103969.09;;;-5.60;100.00
51687;BME280;37774;52.192;4.584;2023-02-08T01:48:59;104230.56;;;-3.76;100.00
51687;BME280;37774;52.192;4.584;2023-02-08T01:51:31;104185.63;;;-3.84;100.00
51687;BME280;37774;52.192;4.584;2023-02-08T01:54:00;104233.66;;;-3.78;100.00
51687;BME280;37774;52.192;4.584;2023-02-08T01:56:32;103851.50;;;-6.01;100.00
51687;BME280;37774;52.192;4.584;2023-02-08T01:59:03;104223.56;;;-3.54;100.00
51687;BME280;37774;52.192;4.584;2023-02-08T02:01:32;104254.31;;;-3.43;100.00
51687;BME280;37774;52.192;4.584;2023-02-08T02:04:00;104231.22;;;-3.45;100.00
51687;BME280;37774;52.192;4.584;2023-02-08T02:06:32;104227.16;;;-3.52;100.00
51687;BME280;37774;52.192;4.584;2023-02-08T02:09:06;104276.03;;;-3.54;100.00
51687;BME280;37774;52.192;4.584;2023-02-08T02:11:36;104018.34;;;-5.02;100.00
51687;BME280;37774;52.192;4.584;2023-02-08T02:14:04;104078.91;;;-4.41;100.00
51687;BME280;37774;52.192;4.584;2023-02-08T02:16:31;104168.59;;;-4.01;100.00
51687;BME280;37774;52.192;4.584;2023-02-08T02:18:58;104131.34;;;-4.42;100.00
51687;BME280;37774;52.192;4.584;2023-02-08T02:21:42;104224.53;;;-3.60;100.00
51687;BME280;37774;52.192;4.584;2023-02-08T02:24:48;104171.47;;;-3.98;100.00
51687;BME280;37774;52.192;4.584;2023-02-08T02:27:25;104182.38;;;-3.99;100.00
51687;BME280;37774;52.192;4.584;2023-02-08T02:33:28;104166.13;;;-3.92;100.00
51687;BME280;37774;52.192;4.584;2023-02-08T02:36:02;104210.09;;;-3.53;100.00
51687;BME280;37774;52.192;4.584;2023-02-08T02:38:43;103978.63;;;-5.34;100.00
51687;BME280;37774;52.192;4.584;2023-02-08T02:41:19;104220.28;;;-3.69;100.00
51687;BME280;37774;52.192;4.584;2023-02-08T02:44:09;104206.59;;;-3.62;100.00
51687;BME280;37774;52.192;4.584;2023-02-08T02:46:42;104172.94;;;-3.84;100.00
51687;BME280;37774;52.192;4.584;2023-02-08T02:49:17;103935.00;;;-5.38;100.00
51687;BME280;37774;52.192;4.584;2023-02-08T02:51:47;104162.72;;;-4.09;100.00
51687;BME280;37774;52.192;4.584;2023-02-08T02:54:21;104208.00;;;-3.73;100.00
51687;BME280;37774;52.192;4.584;2023-02-08T02:56:52;104214.31;;;-3.69;100.00
51687;BME280;37774;52.192;4.584;2023-02-08T02:59:21;104160.00;;;-3.94;100.00
51687;BME280;37774;52.192;4.584;2023-02-08T03:01:48;104200.69;;;-3.70;100.00
51687;BME280;37774;52.192;4.584;2023-02-08T03:04:18;104132.88;;;-4.19;100.00
51687;BME280;37774;52.192;4.584;2023-02-08T03:07:10;103768.47;;;-6.36;100.00
51687;BME280;37774;52.192;4.584;2023-02-08T03:09:50;103783.66;;;-6.20;100.00
51687;BME280;37774;52.192;4.584;2023-02-08T03:12:29;103700.91;;;-6.60;100.00
51687;BME280;37774;52.192;4.584;2023-02-08T03:15:05;104136.16;;;-4.20;100.00
51687;BME280;37774;52.192;4.584;2023-02-08T03:17:44;103615.75;;;-7.15;100.00
51687;BME280;37774;52.192;4.584;2023-02-08T03:20:20;104187.03;;;-3.79;100.00
51687;BME280;37774;52.192;4.584;2023-02-08T03:22:58;104184.81;;;-3.76;100.00
51687;BME280;37774;52.192;4.584;2023-02-08T03:25:33;104106.50;;;-4.28;100.00
51687;BME280;37774;52.192;4.584;2023-02-08T03:28:04;104219.00;;;-3.81;100.00
51687;BME280;37774;52.192;4.584;2023-02-08T03:30:38;104182.50;;;-3.82;100.00
51687;BME280;37774;52.192;4.584;2023-02-08T03:33:14;104113.63;;;-4.17;100.00
51687;BME280;37774;52.192;4.584;2023-02-08T03:35:48;103858.56;;;-5.66;100.00
51687;BME280;37774;52.192;4.584;2023-02-08T03:38:20;104167.75;;;-3.93;100.00
51687;BME280;37774;52.192;4.584;2023-02-08T03:40:51;103841.78;;;-6.05;100.00
51687;BME280;37774;52.192;4.584;2023-02-08T03:43:22;104098.97;;;-4.19;100.00
51687;BME280;37774;52.192;4.584;2023-02-08T03:45:54;104096.44;;;-4.35;100.00
51687;BME280;37774;52.192;4.584;2023-02-08T03:48:24;104171.00;;;-4.03;100.00
51687;BME280;37774;52.192;4.584;2023-02-08T03:50:55;104069.66;;;-4.57;100.00
51687;BME280;37774;52.192;4.584;2023-02-08T03:53:23;104174.09;;;-3.89;100.00
51687;BME280;37774;52.192;4.584;2023-02-08T03:55:55;104116.59;;;-4.53;100.00
51687;BME280;37774;52.192;4.584;2023-02-08T03:58:26;104042.06;;;-4.86;100.00
51687;BME280;37774;52.192;4.584;2023-02-08T04:00:57;104083.66;;;-4.44;100.00
51687;BME280;37774;52.192;4.584;2023-02-08T04:03:27;104166.47;;;-4.05;100.00
51687;BME280;37774;52.192;4.584;2023-02-08T04:05:57;103883.41;;;-5.71;100.00
51687;BME280;37774;52.192;4.584;2023-02-08T04:08:24;104165.81;;;-4.12;100.00
51687;BME280;37774;52.192;4.584;2023-02-08T04:10:51;103894.28;;;-5.72;100.00
51687;BME280;37774;52.192;4.584;2023-02-08T04:13:18;104171.50;;;-4.14;100.00
51687;BME280;37774;52.192;4.584;2023-02-08T04:15:44;104170.00;;;-4.12;100.00
51687;BME280;37774;52.192;4.584;2023-02-08T04:18:11;103954.06;;;-5.42;100.00
51687;BME280;37774;52.192;4.584;2023-02-08T04:20:38;103865.69;;;-6.10;100.00
51687;BME280;37774;52.192;4.584;2023-02-08T04:23:06;104112.25;;;-4.38;100.00
51687;BME280;37774;52.192;4.584;2023-02-08T04:25:33;103720.75;;;-6.79;100.00
51687;BME280;37774;52.192;4.584;2023-02-08T04:28:00;104140.50;;;-4.19;100.00
51687;BME280;37774;52.192;4.584;2023-02-08T04:30:27;104157.56;;;-4.18;100.00
51687;BME280;37774;52.192;4.584;2023-02-08T04:32:53;104092.44;;;-4.65;100.00
51687;BME280;37774;52.192;4.584;2023-02-08T04:35:20;104150.56;;;-4.12;100.00
51687;BME280;37774;52.192;4.584;2023-02-08T04:37:47;104078.09;;;-4.65;100.00
51687;BME280;37774;52.192;4.584;2023-02-08T04:40:15;104155.75;;;-4.19;100.00
51687;BME280;37774;52.192;4.584;2023-02-08T04:42:42;104102.25;;;-4.36;100.00
51687;BME280;37774;52.192;4.584;2023-02-08T04:45:09;104115.53;;;-4.39;100.00
51687;BME280;37774;52.192;4.584;2023-02-08T04:47:36;104081.88;;;-4.61;100.00
51687;BME280;37774;52.192;4.584;2023-02-08T04:50:03;104153.19;;;-4.35;100.00
51687;BME280;37774;52.192;4.584;2023-02-08T04:52:30;104076.06;;;-4.60;100.00
51687;BME280;37774;52.192;4.584;2023-02-08T04:54:57;104129.69;;;-4.25;100.00
51687;BME280;37774;52.192;4.584;2023-02-08T04:57:25;104127.06;;;-4.18;100.00
51687;BME280;37774;52.192;4.584;2023-02-08T04:59:52;103951.97;;;-5.30;100.00
51687;BME280;37774;52.192;4.584;2023-02-08T05:02:19;104026.19;;;-5.08;100.00
51687;BME280;37774;52.192;4.584;2023-02-08T05:04:46;104127.25;;;-4.16;100.00
51687;BME280;37774;52.192;4.584;2023-02-08T05:07:12;103626.53;;;-7.09;100.00
51687;BME280;37774;52.192;4.584;2023-02-08T05:09:39;104130.34;;;-4.03;100.00
51687;BME280;37774;52.192;4.584;2023-02-08T05:12:06;104083.56;;;-4.37;100.00
51687;BME280;37774;52.192;4.584;2023-02-08T05:14:34;104139.25;;;-4.06;100.00
51687;BME280;37774;52.192;4.584;2023-02-08T05:17:01;104054.28;;;-4.58;100.00
51687;BME280;37774;52.192;4.584;2023-02-08T05:19:28;104130.34;;;-4.03;100.00
51687;BME280;37774;52.192;4.584;2023-02-08T05:21:55;104131.81;;;-4.05;100.00
51687;BME280;37774;52.192;4.584;2023-02-08T05:24:22;104139.25;;;-4.06;100.00
51687;BME280;37774;52.192;4.584;2023-02-08T05:26:48;104140.59;;;-4.10;100.00
51687;BME280;37774;52.192;4.584;2023-02-08T05:29:15;104107.09;;;-4.47;100.00
51687;BME280;37774;52.192;4.584;2023-02-08T05:31:43;103997.47;;;-5.00;100.00
51687;BME280;37774;52.192;4.584;2023-02-08T05:34:10;103804.69;;;-6.05;100.00
51687;BME280;37774;52.192;4.584;2023-02-08T05:36:37;104031.28;;;-4.92;100.00
51687;BME280;37774;52.192;4.584;2023-02-08T05:39:04;103923.81;;;-5.57;100.00
51687;BME280;37774;52.192;4.584;2023-02-08T05:41:32;104004.03;;;-4.86;100.00
51687;BME280;37774;52.192;4.584;2023-02-08T05:43:58;104118.81;;;-4.24;100.00
51687;BME280;37774;52.192;4.584;2023-02-08T05:46:25;104123.38;;;-4.29;100.00
51687;BME280;37774;52.192;4.584;2023-02-08T05:48:53;104115.00;;;-4.28;100.00
51687;BME280;37774;52.192;4.584;2023-02-08T05:51:20;103641.63;;;-7.01;100.00
51687;BME280;37774;52.192;4.584;2023-02-08T05:53:47;104124.53;;;-4.18;100.00
51687;BME280;37774;52.192;4.584;2023-02-08T05:56:13;103552.97;;;-7.42;100.00
51687;BME280;37774;52.192;4.584;2023-02-08T05:58:40;104065.00;;;-4.45;100.00
51687;BME280;37774;52.192;4.584;2023-02-08T06:01:08;104180.59;;;-4.16;100.00
51687;BME280;37774;52.192;4.584;2023-02-08T06:03:35;104075.56;;;-4.49;100.00
51687;BME280;37774;52.192;4.584;2023-02-08T06:06:04;104122.06;;;-4.25;100.00
51687;BME280;37774;52.192;4.584;2023-02-08T06:08:32;104016.59;;;-4.94;100.00
51687;BME280;37774;52.192;4.584;2023-02-08T06:10:59;104100.88;;;-4.42;100.00
51687;BME280;37774;52.192;4.584;2023-02-08T06:13:26;103772.47;;;-6.22;100.00
51687;BME280;37774;52.192;4.584;2023-02-08T06:15:53;103695.38;;;-6.72;100.00
51687;BME280;37774;52.192;4.584;2023-02-08T06:18:20;104106.09;;;-4.40;100.00
51687;BME280;37774;52.192;4.584;2023-02-08T06:20:47;104108.81;;;-4.38;100.00
51687;BME280;37774;52.192;4.584;2023-02-08T06:23:15;104132.38;;;-4.56;100.00
51687;BME280;37774;52.192;4.584;2023-02-08T06:25:41;104110.28;;;-4.41;100.00
51687;BME280;37774;52.192;4.584;2023-02-08T06:28:08;104102.75;;;-4.48;100.00
51687;BME280;37774;52.192;4.584;2023-02-08T06:30:35;104110.38;;;-4.48;100.00
51687;BME280;37774;52.192;4.584;2023-02-08T06:33:02;104111.19;;;-4.56;100.00
51687;BME280;37774;52.192;4.584;2023-02-08T06:35:29;104109.72;;;-4.54;100.00
51687;BME280;37774;52.192;4.584;2023-02-08T06:37:56;104098.84;;;-4.53;100.00
51687;BME280;37774;52.192;4.584;2023-02-08T06:40:24;104097.84;;;-4.62;100.00
51687;BME280;37774;52.192;4.584;2023-02-08T06:42:51;104083.56;;;-4.85;100.00
51687;BME280;37774;52.192;4.584;2023-02-08T06:45:18;104090.88;;;-4.72;100.00
51687;BME280;37774;52.192;4.584;2023-02-08T06:47:45;103774.84;;;-6.86;100.00
51687;BME280;37774;52.192;4.584;2023-02-08T06:50:11;103999.81;;;-5.17;100.00
51687;BME280;37774;52.192;4.584;2023-02-08T06:52:39;104026.97;;;-5.16;100.00
51687;BME280;37774;52.192;4.584;2023-02-08T06:55:06;104100.38;;;-4.62;100.00
51687;BME280;37774;52.192;4.584;2023-02-08T06:57:35;104097.25;;;-4.60;100.00
51687;BME280;37774;52.192;4.584;2023-02-08T07:00:02;104099.66;;;-4.61;100.00
51687;BME280;37774;52.192;4.584;2023-02-08T07:02:29;104089.00;;;-4.66;100.00
51687;BME280;37774;52.192;4.584;2023-02-08T07:04:56;104102.41;;;-4.67;100.00
51687;BME280;37774;52.192;4.584;2023-02-08T07:07:22;104098.19;;;-4.59;100.00
51687;BME280;37774;52.192;4.584;2023-02-08T07:09:49;104093.75;;;-4.69;100.00
51687;BME280;37774;52.192;4.584;2023-02-08T07:12:16;104100.53;;;-4.77;100.00
51687;BME280;37774;52.192;4.584;2023-02-08T07:14:44;104056.78;;;-5.06;100.00
51687;BME280;37774;52.192;4.584;2023-02-08T07:17:11;104090.41;;;-4.77;100.00
51687;BME280;37774;52.192;4.584;2023-02-08T07:19:39;104080.72;;;-4.72;100.00
51687;BME280;37774;52.192;4.584;2023-02-08T07:22:06;103852.63;;;-6.06;100.00
51687;BME280;37774;52.192;4.584;2023-02-08T07:24:34;103693.84;;;-6.79;100.00
51687;BME280;37774;52.192;4.584;2023-02-08T07:27:01;104031.25;;;-5.08;100.00
51687;BME280;37774;52.192;4.584;2023-02-08T07:29:28;104132.06;;;-4.59;100.00
51687;BME280;37774;52.192;4.584;2023-02-08T07:31:57;103769.22;;;-6.60;100.00
51687;BME280;37774;52.192;4.584;2023-02-08T07:34:24;104080.72;;;-4.56;100.00
51687;BME280;37774;52.192;4.584;2023-02-08T07:36:51;104077.19;;;-4.49;100.00
51687;BME280;37774;52.192;4.584;2023-02-08T07:39:18;104025.81;;;-4.72;100.00
51687;BME280;37774;52.192;4.584;2023-02-08T07:41:46;103994.09;;;-4.91;100.00
51687;BME280;37774;52.192;4.584;2023-02-08T07:44:12;104021.19;;;-4.83;100.00
51687;BME280;37774;52.192;4.584;2023-02-08T07:46:39;103868.69;;;-5.66;100.00
51687;BME280;37774;52.192;4.584;2023-02-08T07:49:08;104080.16;;;-4.37;100.00
51687;BME280;37774;52.192;4.584;2023-02-08T07:51:35;104072.03;;;-4.42;100.00
51687;BME280;37774;52.192;4.584;2023-02-08T07:54:01;103753.88;;;-6.22;100.00
51687;BME280;37774;52.192;4.584;2023-02-08T07:56:29;103979.44;;;-4.78;100.00
51687;BME280;37774;52.192;4.584;2023-02-08T07:58:56;104072.00;;;-4.10;100.00
51687;BME280;37774;52.192;4.584;2023-02-08T08:01:22;104073.72;;;-4.18;100.00
51687;BME280;37774;52.192;4.584;2023-02-08T08:03:50;104069.41;;;-3.94;100.00
51687;BME280;37774;52.192;4.584;2023-02-08T08:06:19;104064.28;;;-4.03;100.00
51687;BME280;37774;52.192;4.584;2023-02-08T08:08:46;104081.44;;;-3.84;100.00
51687;BME280;37774;52.192;4.584;2023-02-08T08:11:13;103994.03;;;-4.27;100.00
51687;BME280;37774;52.192;4.584;2023-02-08T08:13:40;104032.84;;;-4.12;100.00
51687;BME280;37774;52.192;4.584;2023-02-08T08:16:07;104097.16;;;-3.79;100.00
51687;BME280;37774;52.192;4.584;2023-02-08T08:18:34;104040.72;;;-3.93;100.00
51687;BME280;37774;52.192;4.584;2023-02-08T08:21:01;104091.75;;;-3.58;100.00
51687;BME280;37774;52.192;4.584;2023-02-08T08:23:30;104009.66;;;-3.90;100.00
51687;BME280;37774;52.192;4.584;2023-02-08T08:25:57;103716.56;;;-5.59;100.00
51687;BME280;37774;52.192;4.584;2023-02-08T08:28:24;104092.03;;;-3.30;100.00
51687;BME280;37774;52.192;4.584;2023-02-08T08:30:51;103813.63;;;-4.78;100.00
51687;BME280;37774;52.192;4.584;2023-02-08T08:33:18;104076.97;;;-3.19;100.00
51687;BME280;37774;52.192;4.584;2023-02-08T08:35:45;104071.00;;;-3.11;100.00
51687;BME280;37774;52.192;4.584;2023-02-08T08:38:12;104007.31;;;-3.46;100.00
51687;BME280;37774;52.192;4.584;2023-02-08T08:40:40;103967.09;;;-3.75;100.00
51687;BME280;37774;52.192;4.584;2023-02-08T08:43:07;104067.59;;;-3.03;100.00
51687;BME280;37774;52.192;4.584;2023-02-08T08:45:34;104063.88;;;-2.89;100.00
51687;BME280;37774;52.192;4.584;2023-02-08T08:48:02;104046.34;;;-3.03;100.00
51687;BME280;37774;52.192;4.584;2023-02-08T08:50:29;104014.16;;;-2.94;100.00
51687;BME280;37774;52.192;4.584;2023-02-08T08:52:56;104063.31;;;-2.60;100.00
51687;BME280;37774;52.192;4.584;2023-02-08T08:55:22;104056.59;;;-2.42;100.00
51687;BME280;37774;52.192;4.584;2023-02-08T08:57:53;103947.69;;;-3.06;100.00
51687;BME280;37774;52.192;4.584;2023-02-08T09:00:19;103983.19;;;-2.72;100.00
51687;BME280;37774;52.192;4.584;2023-02-08T09:02:47;104058.06;;;-2.17;100.00
51687;BME280;37774;52.192;4.584;2023-02-08T09:05:14;104031.28;;;-2.49;100.00
51687;BME280;37774;52.192;4.584;2023-02-08T09:07:40;104060.44;;;-2.01;100.00
51687;BME280;37774;52.192;4.584;2023-02-08T09:10:07;103936.75;;;-2.70;100.00
51687;BME280;37774;52.192;4.584;2023-02-08T09:12:34;104044.41;;;-2.00;100.00
51687;BME280;37774;52.192;4.584;2023-02-08T09:15:03;104056.66;;;-1.79;100.00
51687;BME280;37774;52.192;4.584;2023-02-08T09:17:30;103700.06;;;-3.86;100.00
51687;BME280;37774;52.192;4.584;2023-02-08T09:19:57;104057.19;;;-1.55;100.00
51687;BME280;37774;52.192;4.584;2023-02-08T09:22:24;104064.63;;;-1.39;100.00
51687;BME280;37774;52.192;4.584;2023-02-08T09:24:51;104060.91;;;-1.42;100.00
51687;BME280;37774;52.192;4.584;2023-02-08T09:27:18;104021.94;;;-1.59;100.00
51687;BME280;37774;52.192;4.584;2023-02-08T09:29:45;104007.38;;;-1.60;100.00
51687;BME280;37774;52.192;4.584;2023-02-08T09:32:13;103956.16;;;-1.81;100.00
51687;BME280;37774;52.192;4.584;2023-02-08T09:34:40;104050.41;;;-1.18;100.00
51687;BME280;37774;52.192;4.584;2023-02-08T09:37:06;104048.78;;;-0.98;100.00
51687;BME280;37774;52.192;4.584;2023-02-08T09:39:33;104043.13;;;-1.04;100.00
51687;BME280;37774;52.192;4.584;2023-02-08T09:42:19;104042.13;;;-0.87;100.00
51687;BME280;37774;52.192;4.584;2023-02-08T09:44:57;104038.53;;;-0.89;100.00
51687;BME280;37774;52.192;4.584;2023-02-08T09:47:32;104038.47;;;-0.80;100.00
51687;BME280;37774;52.192;4.584;2023-02-08T09:50:02;104029.72;;;-0.74;100.00
51687;BME280;37774;52.192;4.584;2023-02-08T09:52:36;104020.66;;;-0.70;100.00
51687;BME280;37774;52.192;4.584;2023-02-08T09:55:16;103948.94;;;-1.01;100.00
51687;BME280;37774;52.192;4.584;2023-02-08T09:57:46;104008.97;;;-0.57;100.00
51687;BME280;37774;52.192;4.584;2023-02-08T10:00:15;104028.94;;;-0.34;100.00
51687;BME280;37774;52.192;4.584;2023-02-08T10:02:46;104078.19;;;-0.26;100.00
51687;BME280;37774;52.192;4.584;2023-02-08T10:05:19;104031.69;;;-0.22;100.00
51687;BME280;37774;52.192;4.584;2023-02-08T10:07:46;104027.81;;;-0.27;100.00
51687;BME280;37774;52.192;4.584;2023-02-08T10:10:16;104040.38;;;-0.20;100.00
51687;BME280;37774;52.192;4.584;2023-02-08T10:12:50;103961.19;;;-0.59;100.00
51687;BME280;37774;52.192;4.584;2023-02-08T10:15:29;103979.22;;;-0.38;100.00
51687;BME280;37774;52.192;4.584;2023-02-08T10:18:35;104037.19;;;0.12;100.00
51687;BME280;37774;52.192;4.584;2023-02-08T10:21:25;103998.81;;;0.12;100.00
51687;BME280;37774;52.192;4.584;2023-02-08T10:26:47;103965.19;;;0.07;100.00
51687;BME280;37774;52.192;4.584;2023-02-08T10:29:40;103964.75;;;-0.08;100.00
51687;BME280;37774;52.192;4.584;2023-02-08T10:32:26;104031.25;;;0.32;100.00
51687;BME280;37774;52.192;4.584;2023-02-08T10:35:04;103873.16;;;-0.43;100.00
51687;BME280;37774;52.192;4.584;2023-02-08T10:37:33;103958.22;;;-0.04;100.00
51687;BME280;37774;52.192;4.584;2023-02-08T10:40:14;103965.84;;;0.25;100.00
51687;BME280;37774;52.192;4.584;2023-02-08T10:42:47;104023.78;;;0.65;100.00
51687;BME280;37774;52.192;4.584;2023-02-08T10:45:21;104017.63;;;0.73;100.00
51687;BME280;37774;52.192;4.584;2023-02-08T10:47:52;104016.59;;;1.02;100.00
51687;BME280;37774;52.192;4.584;2023-02-08T10:50:27;104003.91;;;1.04;100.00
51687;BME280;37774;52.192;4.584;2023-02-08T10:52:55;103880.31;;;0.22;100.00
51687;BME280;37774;52.192;4.584;2023-02-08T10:55:22;104000.22;;;1.10;100.00
51687;BME280;37774;52.192;4.584;2023-02-08T10:57:51;103996.59;;;1.29;100.00
51687;BME280;37774;52.192;4.584;2023-02-08T11:00:25;103991.69;;;1.42;100.00
51687;BME280;37774;52.192;4.584;2023-02-08T11:02:53;103988.59;;;1.46;100.00
51687;BME280;37774;52.192;4.584;2023-02-08T11:05:31;103980.56;;;1.42;100.00
51687;BME280;37774;52.192;4.584;2023-02-08T11:08:06;103975.31;;;1.30;100.00
51687;BME280;37774;52.192;4.584;2023-02-08T11:10:34;103974.50;;;1.41;100.00
51687;BME280;37774;52.192;4.584;2023-02-08T11:13:04;103921.31;;;1.06;100.00
51687;BME280;37774;52.192;4.584;2023-02-08T11:15:37;103710.47;;;-0.22;100.00
51687;BME280;37774;52.192;4.584;2023-02-08T11:18:06;103963.94;;;1.69;100.00
51687;BME280;37774;52.192;4.584;2023-02-08T11:20:41;103621.91;;;-0.11;100.00
51687;BME280;37774;52.192;4.584;2023-02-08T11:23:20;103950.63;;;1.85;100.00
51687;BME280;37774;52.192;4.584;2023-02-08T11:25:48;103961.13;;;1.88;100.00
51687;BME280;37774;52.192;4.584;2023-02-08T11:28:25;103948.63;;;2.03;100.00
51687;BME280;37774;52.192;4.584;2023-02-08T11:31:00;103721.78;;;0.44;100.00
51687;BME280;37774;52.192;4.584;2023-02-08T11:33:29;103934.66;;;1.78;100.00
51687;BME280;37774;52.192;4.584;2023-02-08T11:36:02;103836.59;;;1.25;100.00
51687;BME280;37774;52.192;4.584;2023-02-08T11:38:32;103927.03;;;1.89;100.00
51687;BME280;37774;52.192;4.584;2023-02-08T11:41:02;103919.25;;;2.00;100.00
51687;BME280;37774;52.192;4.584;2023-02-08T11:43:32;103553.03;;;-0.20;100.00
51687;BME280;37774;52.192;4.584;2023-02-08T11:46:01;103499.78;;;-0.25;100.00
51687;BME280;37774;52.192;4.584;2023-02-08T11:48:37;103905.94;;;2.16;100.00
51687;BME280;37774;52.192;4.584;2023-02-08T11:51:07;103845.63;;;1.65;100.00
51687;BME280;37774;52.192;4.584;2023-02-08T11:53:38;103896.16;;;2.22;100.00
51687;BME280;37774;52.192;4.584;2023-02-08T11:56:14;103876.13;;;2.06;100.00
51687;BME280;37774;52.192;4.584;2023-02-08T11:58:54;103884.25;;;2.34;100.00
51687;BME280;37774;52.192;4.584;2023-02-08T12:01:25;103888.50;;;2.34;100.00
51687;BME280;37774;52.192;4.584;2023-02-08T12:03:53;103826.25;;;2.02;100.00
51687;BME280;37774;52.192;4.584;2023-02-08T12:06:38;103876.56;;;2.34;100.00
51687;BME280;37774;52.192;4.584;2023-02-08T12:09:22;103867.28;;;2.37;100.00
51687;BME280;37774;52.192;4.584;2023-02-08T12:11:56;103857.28;;;2.63;100.00
51687;BME280;37774;52.192;4.584;2023-02-08T12:14:44;103859.34;;;2.68;100.00
51687;BME280;37774;52.192;4.584;2023-02-08T12:17:41;103815.53;;;2.54;100.00
51687;BME280;37774;52.192;4.584;2023-02-08T12:20:31;103833.06;;;2.84;100.00
51687;BME280;37774;52.192;4.584;2023-02-08T12:23:12;103793.78;;;2.61;100.00
51687;BME280;37774;52.192;4.584;2023-02-08T12:25:46;103774.81;;;2.59;100.00
51687;BME280;37774;52.192;4.584;2023-02-08T12:28:20;103805.38;;;2.80;100.00
51687;BME280;37774;52.192;4.584;2023-02-08T12:30:57;103822.34;;;2.77;100.00
51687;BME280;37774;52.192;4.584;2023-02-08T12:33:36;103769.41;;;2.80;100.00
51687;BME280;37774;52.192;4.584;2023-02-08T12:36:25;103735.47;;;2.84;100.00
51687;BME280;37774;52.192;4.584;2023-02-08T12:39:18;103832.97;;;3.06;100.00
51687;BME280;37774;52.192;4.584;2023-02-08T12:42:20;103759.09;;;3.03;100.00
51687;BME280;37774;52.192;4.584;2023-02-08T12:45:14;103814.47;;;3.35;100.00
51687;BME280;37774;52.192;4.584;2023-02-08T12:47:55;103660.97;;;2.46;100.00
51687;BME280;37774;52.192;4.584;2023-02-08T12:50:31;103799.22;;;3.50;100.00
51687;BME280;37774;52.192;4.584;2023-02-08T12:53:02;103647.06;;;2.68;100.00
51687;BME280;37774;52.192;4.584;2023-02-08T12:55:36;103800.13;;;3.51;100.00
51687;BME280;37774;52.192;4.584;2023-02-08T12:58:23;103738.88;;;3.08;100.00
51687;BME280;37774;52.192;4.584;2023-02-08T13:00:53;103725.34;;;3.11;100.00
51687;BME280;37774;52.192;4.584;2023-02-08T13:03:30;103782.31;;;3.54;100.00
51687;BME280;37774;52.192;4.584;2023-02-08T13:06:03;103689.91;;;3.18;100.00